createdAt,value
2019-05-02T00:01:01.664Z,56.30
2019-05-02T00:03:35.869Z,59.15
2019-05-02T00:06:03.037Z,61.60
2019-05-02T00:08:34.349Z,57.20
2019-05-02T00:11:03.392Z,58.10
2019-05-02T00:13:32.638Z,64.00
2019-05-02T00:16:01.396Z,58.50
2019-05-02T00:18:31.915Z,57.13
2019-05-02T00:21:01.447Z,54.48
2019-05-02T00:23:31.790Z,54.50
2019-05-02T00:26:00.474Z,52.55
2019-05-02T00:28:29.247Z,51.58
2019-05-02T00:30:57.992Z,51.63
2019-05-02T00:33:29.306Z,48.48
2019-05-02T00:35:57.744Z,53.87
2019-05-02T00:38:26.689Z,50.20
2019-05-02T00:40:57.402Z,45.65
2019-05-02T00:43:29.102Z,47.62
2019-05-02T00:45:59.775Z,46.42
2019-05-02T00:48:54.155Z,49.33
2019-05-02T00:51:21.937Z,49.25
2019-05-02T00:53:51.732Z,51.60
2019-05-02T00:56:21.054Z,49.75
2019-05-02T00:58:49.758Z,49.85
2019-05-02T01:01:32.693Z,50.88
2019-05-02T01:04:05.731Z,58.00
2019-05-02T01:06:34.689Z,51.45
2019-05-02T01:09:05.845Z,53.02
2019-05-02T01:11:35.921Z,50.60
2019-05-02T01:14:05.080Z,52.80
2019-05-02T01:16:33.828Z,50.67
2019-05-02T01:19:03.188Z,52.33
2019-05-02T01:21:38.405Z,50.92
2019-05-02T01:24:03.301Z,50.88
2019-05-02T01:26:36.766Z,49.05
2019-05-02T01:29:11.214Z,55.52
2019-05-02T01:32:05.249Z,49.75
2019-05-02T01:34:48.943Z,48.90
2019-05-02T01:37:22.015Z,49.70
2019-05-02T01:39:50.692Z,50.15
2019-05-02T01:42:19.353Z,52.78
2019-05-02T01:44:48.352Z,48.78
2019-05-02T01:47:17.400Z,45.38
2019-05-02T01:49:46.091Z,51.30
2019-05-02T01:52:18.991Z,44.70
2019-05-02T01:54:45.682Z,46.48
2019-05-02T01:57:15.930Z,47.93
2019-05-02T01:59:44.616Z,46.98
2019-05-02T02:02:13.667Z,53.70
2019-05-02T02:04:45.072Z,51.53
2019-05-02T02:07:15.004Z,57.00
2019-05-02T02:09:45.839Z,49.70
2019-05-02T02:12:14.611Z,52.78
2019-05-02T02:14:43.316Z,54.60
2019-05-02T02:17:15.584Z,53.50
2019-05-02T02:19:48.344Z,57.83
2019-05-02T02:22:33.752Z,56.55
2019-05-02T02:25:21.175Z,54.13
2019-05-02T02:27:49.844Z,57.05
2019-05-02T02:30:24.335Z,55.20
2019-05-02T02:32:49.055Z,58.52
2019-05-02T02:35:17.741Z,57.55
2019-05-02T02:37:52.922Z,52.88
2019-05-02T02:40:16.993Z,59.27
2019-05-02T02:42:45.836Z,60.45
2019-05-02T02:45:31.456Z,63.05
2019-05-02T02:48:02.453Z,57.13
2019-05-02T02:50:30.554Z,60.80
2019-05-02T02:52:59.497Z,56.95
2019-05-02T02:55:28.284Z,65.35
2019-05-02T02:57:58.565Z,66.75
2019-05-02T03:00:27.473Z,57.05
2019-05-02T03:02:56.391Z,56.00
2019-05-02T03:05:27.673Z,57.65
2019-05-02T03:07:59.509Z,60.12
2019-05-02T03:10:26.908Z,61.85
2019-05-02T03:13:21.479Z,55.92
2019-05-02T03:15:50.454Z,54.73
2019-05-02T03:18:19.204Z,55.70
2019-05-02T03:20:48.299Z,57.25
2019-05-02T03:23:21.695Z,60.90
2019-05-02T03:25:51.217Z,60.88
2019-05-02T03:28:20.853Z,57.38
2019-05-02T03:30:49.307Z,59.75
2019-05-02T03:33:18.100Z,54.98
2019-05-02T03:35:49.070Z,62.45
2019-05-02T03:38:17.898Z,60.17
2019-05-02T03:40:46.586Z,58.33
2019-05-02T03:43:18.987Z,60.35
2019-05-02T03:45:45.910Z,65.22
2019-05-02T03:48:18.135Z,70.47
2019-05-02T03:50:45.383Z,67.15
2019-05-02T03:53:17.526Z,73.10
2019-05-02T03:55:44.666Z,69.67
2019-05-02T03:58:16.775Z,68.75
2019-05-02T04:00:47.121Z,68.60
2019-05-02T04:03:16.469Z,72.03
2019-05-02T04:05:45.238Z,66.77
2019-05-02T04:08:20.844Z,64.20
2019-05-02T04:11:09.207Z,72.03
2019-05-02T04:13:38.657Z,70.85
2019-05-02T04:16:14.525Z,68.78
2019-05-02T04:18:38.310Z,66.85
2019-05-02T04:21:07.031Z,70.08
2019-05-02T04:23:38.347Z,68.12
2019-05-02T04:26:12.769Z,68.85
2019-05-02T04:28:37.843Z,71.57
2019-05-02T04:31:06.570Z,70.92
2019-05-02T04:33:36.572Z,75.28
2019-05-02T04:36:13.752Z,72.30
2019-05-02T04:38:46.567Z,72.97
2019-05-02T04:41:09.337Z,80.70
2019-05-02T04:43:40.576Z,70.92
2019-05-02T04:46:18.091Z,71.70
2019-05-02T04:48:48.150Z,71.90
2019-05-02T04:51:16.262Z,72.95
2019-05-02T04:53:45.039Z,66.87
2019-05-02T04:56:11.733Z,65.12
2019-05-02T04:58:40.946Z,69.05
2019-05-02T05:01:10.296Z,68.90
2019-05-02T05:03:39.198Z,67.27
2019-05-02T05:06:12.232Z,68.22
2019-05-02T05:08:41.588Z,68.47
2019-05-02T05:11:09.069Z,72.47
2019-05-02T05:13:37.738Z,69.47
2019-05-02T05:16:08.645Z,70.90
2019-05-02T05:18:37.863Z,71.10
2019-05-02T05:21:10.342Z,71.85
2019-05-02T05:24:08.312Z,77.03
2019-05-02T05:26:42.831Z,83.80
2019-05-02T05:29:09.322Z,83.97
2019-05-02T05:31:38.284Z,84.25
2019-05-02T05:34:08.017Z,84.58
2019-05-02T05:36:37.618Z,80.72
2019-05-02T05:39:28.175Z,79.32
2019-05-02T05:41:57.854Z,71.42
2019-05-02T05:44:28.682Z,71.82
2019-05-02T05:46:58.142Z,75.17
2019-05-02T05:49:28.222Z,72.10
2019-05-02T05:52:02.277Z,71.17
2019-05-02T05:54:28.293Z,73.40
2019-05-02T05:56:57.615Z,71.30
2019-05-02T05:59:28.117Z,78.07
2019-05-02T06:01:57.995Z,82.92
2019-05-02T06:04:32.709Z,71.12
2019-05-02T06:06:59.408Z,81.92
2019-05-02T06:09:31.009Z,84.05
2019-05-02T06:11:58.457Z,80.92
2019-05-02T06:14:27.163Z,77.55
2019-05-02T06:16:56.059Z,81.87
2019-05-02T06:19:25.100Z,80.07
2019-05-02T06:21:53.777Z,77.78
2019-05-02T06:24:22.537Z,78.57
2019-05-02T06:26:51.854Z,80.60
2019-05-02T06:29:20.976Z,84.62
2019-05-02T06:31:49.898Z,81.45
2019-05-02T06:34:18.612Z,78.35
2019-05-02T06:36:47.355Z,76.87
2019-05-02T06:39:18.904Z,77.47
2019-05-02T06:41:51.896Z,80.00
2019-05-02T06:44:23.640Z,74.60
2019-05-02T06:46:49.966Z,78.78
2019-05-02T06:49:24.294Z,75.83
2019-05-02T06:51:51.065Z,83.12
2019-05-02T06:54:22.907Z,75.87
2019-05-02T06:56:50.226Z,75.90
2019-05-02T06:59:20.259Z,67.72
2019-05-02T07:01:52.395Z,71.53
2019-05-02T07:04:22.959Z,79.60
2019-05-02T07:06:58.494Z,77.97
2019-05-02T07:09:22.014Z,76.82
2019-05-02T07:11:57.267Z,90.22
2019-05-02T07:14:23.538Z,78.30
2019-05-02T07:17:16.392Z,83.17
2019-05-02T07:19:49.858Z,77.95
2019-05-02T07:22:18.587Z,88.97
2019-05-02T07:24:47.287Z,80.40
2019-05-02T07:27:16.572Z,81.47
2019-05-02T07:29:45.300Z,90.15
2019-05-02T07:32:14.165Z,116.70
2019-05-02T07:34:44.261Z,73.37
2019-05-02T07:37:14.051Z,86.65
2019-05-02T07:39:43.416Z,77.37
2019-05-02T07:42:12.444Z,97.55
2019-05-02T07:44:41.325Z,75.05
2019-05-02T07:47:10.005Z,70.40
2019-05-02T07:49:39.078Z,66.82
2019-05-02T07:52:08.065Z,69.10
2019-05-02T07:54:37.006Z,69.75
2019-05-02T07:57:05.788Z,75.35
2019-05-02T07:59:34.787Z,70.40
2019-05-02T08:02:03.455Z,74.67
2019-05-02T08:04:32.141Z,70.22
2019-05-02T08:07:00.807Z,73.25
2019-05-02T08:09:32.225Z,73.15
2019-05-02T08:12:00.887Z,72.35
2019-05-02T08:14:34.514Z,79.70
2019-05-02T08:17:05.669Z,71.42
2019-05-02T08:19:30.935Z,69.27
2019-05-02T08:22:04.722Z,72.80
2019-05-02T08:24:32.976Z,72.00
2019-05-02T08:30:28.395Z,72.15
2019-05-02T08:32:57.396Z,74.67
2019-05-02T08:35:28.033Z,78.65
2019-05-02T08:37:56.607Z,79.10
2019-05-02T08:40:25.346Z,83.67
2019-05-02T08:42:54.026Z,79.35
2019-05-02T08:45:22.787Z,75.03
2019-05-02T08:47:51.759Z,75.60
2019-05-02T08:50:20.520Z,82.27
2019-05-02T08:52:49.537Z,80.28
2019-05-02T08:55:18.225Z,77.78
2019-05-02T08:57:46.900Z,78.90
2019-05-02T09:00:16.042Z,78.78
2019-05-02T09:02:44.798Z,73.92
2019-05-02T09:05:13.834Z,77.82
2019-05-02T09:07:43.301Z,75.28
2019-05-02T09:10:12.386Z,78.42
2019-05-02T09:12:45.074Z,77.27
2019-05-02T09:15:12.621Z,74.50
2019-05-02T09:17:46.564Z,74.07
2019-05-02T09:20:16.598Z,74.90
2019-05-02T09:22:46.493Z,76.02
2019-05-02T09:25:33.994Z,77.85
2019-05-02T09:28:02.674Z,74.77
2019-05-02T09:30:32.682Z,74.58
2019-05-02T09:33:05.399Z,74.85
2019-05-02T09:35:32.904Z,73.85
2019-05-02T09:38:01.923Z,71.90
2019-05-02T09:40:31.866Z,72.50
2019-05-02T09:43:02.835Z,75.17
2019-05-02T09:45:37.168Z,67.72
2019-05-02T09:50:34.785Z,67.12
2019-05-02T09:53:03.765Z,74.37
2019-05-02T09:55:32.532Z,70.75
2019-05-02T09:58:02.659Z,67.60
2019-05-02T10:00:41.844Z,66.02
2019-05-02T10:03:12.050Z,68.50
2019-05-02T10:05:43.000Z,70.08
2019-05-02T10:08:13.934Z,69.77
2019-05-02T10:10:45.724Z,75.90
2019-05-02T10:13:13.159Z,72.08
2019-05-02T10:15:42.269Z,74.25
2019-05-02T10:18:14.123Z,77.80
2019-05-02T10:20:42.133Z,77.08
2019-05-02T10:23:19.048Z,85.77
2019-05-02T10:25:46.614Z,79.87
2019-05-02T10:28:13.095Z,77.80
2019-05-02T10:30:42.665Z,80.10
2019-05-02T10:33:12.497Z,84.32
2019-05-02T10:35:43.499Z,74.03
2019-05-02T10:38:15.147Z,79.50
2019-05-02T10:40:42.946Z,78.90
2019-05-02T10:43:11.890Z,75.30
2019-05-02T10:45:42.642Z,77.80
2019-05-02T10:48:25.237Z,80.40
2019-05-02T10:50:47.524Z,75.63
2019-05-02T10:53:16.358Z,77.53
2019-05-02T10:55:45.481Z,66.75
2019-05-02T10:58:14.256Z,71.85
2019-05-02T11:00:45.399Z,68.97
2019-05-02T11:03:22.556Z,66.40
2019-05-02T11:05:58.016Z,64.92
2019-05-02T11:08:27.534Z,60.85
2019-05-02T11:10:56.412Z,58.87
2019-05-02T11:13:43.320Z,63.45
2019-05-02T11:16:37.316Z,59.83
2019-05-02T11:21:59.278Z,59.67
2019-05-02T11:24:28.647Z,61.02
2019-05-02T11:26:57.676Z,63.75
2019-05-02T11:29:26.738Z,63.95
2019-05-02T11:31:55.725Z,59.40
2019-05-02T11:34:25.126Z,59.70
2019-05-02T11:36:54.218Z,55.10
2019-05-02T11:39:31.875Z,58.90
2019-05-02T11:41:53.826Z,58.85
2019-05-02T11:44:22.757Z,54.93
2019-05-02T11:46:52.046Z,56.77
2019-05-02T11:49:22.798Z,60.67
2019-05-02T11:51:56.919Z,57.75
2019-05-02T11:54:22.748Z,57.62
2019-05-02T11:56:53.532Z,55.60
2019-05-02T11:59:28.150Z,54.10
2019-05-02T12:02:09.391Z,48.20
2019-05-02T12:04:38.337Z,49.55
2019-05-02T12:07:07.105Z,50.88
2019-05-02T12:09:35.786Z,52.25
2019-05-02T12:12:04.570Z,55.45
2019-05-02T12:14:36.380Z,55.40
2019-05-02T12:17:03.685Z,57.20
2019-05-02T12:19:32.377Z,56.00
2019-05-02T12:22:02.627Z,54.08
2019-05-02T12:24:31.989Z,54.18
2019-05-02T12:27:02.520Z,64.12
2019-05-02T12:29:31.236Z,60.73
2019-05-02T12:31:59.940Z,54.93
2019-05-02T12:34:28.622Z,57.50
2019-05-02T12:36:57.368Z,59.30
2019-05-02T12:39:26.625Z,63.68
2019-05-02T12:41:55.660Z,64.12
2019-05-02T12:44:25.069Z,60.15
2019-05-02T12:46:53.765Z,58.90
2019-05-02T12:49:27.705Z,55.88
2019-05-02T12:51:53.140Z,58.95
2019-05-02T12:54:22.339Z,59.30
2019-05-02T12:56:52.835Z,59.18
2019-05-02T12:59:22.615Z,58.35
2019-05-02T13:01:53.831Z,62.20
2019-05-02T13:04:23.048Z,60.88
2019-05-02T13:06:53.000Z,57.05
2019-05-02T13:09:23.412Z,59.08
2019-05-02T13:11:58.797Z,54.93
2019-05-02T13:14:31.790Z,60.33
2019-05-02T13:17:03.836Z,55.38
2019-05-02T13:19:40.186Z,60.52
2019-05-02T13:22:15.658Z,62.25
2019-05-02T13:24:52.351Z,61.60
2019-05-02T13:27:18.451Z,57.48
2019-05-02T13:29:48.641Z,60.43
2019-05-02T13:32:53.845Z,56.42
2019-05-02T13:35:42.123Z,61.98
2019-05-02T13:38:13.002Z,58.83
2019-05-02T13:40:44.144Z,58.60
2019-05-02T13:43:13.138Z,58.17
2019-05-02T13:46:22.169Z,61.18
2019-05-02T13:48:52.502Z,58.95
2019-05-02T13:51:22.293Z,58.85
2019-05-02T13:54:02.033Z,58.83
2019-05-02T13:56:49.341Z,62.23
2019-05-02T13:59:19.180Z,61.02
2019-05-02T14:01:52.960Z,60.38
2019-05-02T14:04:23.158Z,60.52
2019-05-02T14:06:52.999Z,55.43
2019-05-02T14:09:57.974Z,55.92
2019-05-02T14:12:42.895Z,53.33
2019-05-02T14:15:13.714Z,52.93
2019-05-02T14:17:42.954Z,48.65
2019-05-02T14:20:13.766Z,53.30
2019-05-02T14:22:42.926Z,50.87
2019-05-02T14:25:12.355Z,50.08
2019-05-02T14:27:42.224Z,50.80
2019-05-02T14:30:12.175Z,52.30
2019-05-02T14:32:42.460Z,56.13
2019-05-02T14:35:45.710Z,48.02
2019-05-02T14:38:15.343Z,49.65
2019-05-02T14:41:17.162Z,51.83
2019-05-02T14:44:12.009Z,50.43
2019-05-02T14:46:42.510Z,49.27
2019-05-02T14:49:12.037Z,48.10
2019-05-02T14:51:41.829Z,48.85
2019-05-02T14:54:12.095Z,50.92
2019-05-02T14:56:49.351Z,47.30
2019-05-02T14:59:20.048Z,45.67
2019-05-02T15:01:52.896Z,50.23
2019-05-02T15:04:22.632Z,53.58
2019-05-02T15:06:52.506Z,74.32
2019-05-02T15:09:26.394Z,52.00
2019-05-02T15:12:02.961Z,56.83
2019-05-02T15:14:33.900Z,73.80
2019-05-02T15:17:02.978Z,54.50
2019-05-02T15:19:32.885Z,57.58
2019-05-02T15:22:02.616Z,52.78
2019-05-02T15:24:34.683Z,50.00
2019-05-02T15:27:03.683Z,53.78
2019-05-02T15:29:32.496Z,48.42
2019-05-02T15:32:12.687Z,57.67
2019-05-02T15:34:58.947Z,52.55
2019-05-02T15:37:28.573Z,59.95
2019-05-02T15:42:27.716Z,62.73
2019-05-02T15:44:56.993Z,67.20
2019-05-02T15:47:27.049Z,68.35
2019-05-02T15:49:55.749Z,74.75
2019-05-02T15:52:28.988Z,73.07
2019-05-02T15:55:00.134Z,67.97
2019-05-02T15:57:28.450Z,76.25
2019-05-02T15:59:57.480Z,77.37
2019-05-02T16:02:28.379Z,67.55
2019-05-02T16:05:02.327Z,66.02
2019-05-02T16:07:27.803Z,64.80
2019-05-02T16:10:01.197Z,65.57
2019-05-02T16:12:31.862Z,67.10
2019-05-02T16:14:57.843Z,64.10
2019-05-02T16:17:28.831Z,57.93
2019-05-02T16:20:07.606Z,55.03
2019-05-02T16:22:33.631Z,56.50
2019-05-02T16:25:02.583Z,56.95
2019-05-02T16:27:45.706Z,62.50
2019-05-02T16:30:17.143Z,67.47
2019-05-02T16:32:52.804Z,66.57
2019-05-02T16:35:23.197Z,64.35
2019-05-02T16:37:55.842Z,66.37
2019-05-02T16:40:29.594Z,71.53
2019-05-02T16:42:53.747Z,74.00
2019-05-02T16:45:23.509Z,72.55
2019-05-02T16:47:58.570Z,88.20
2019-05-02T16:50:27.607Z,84.45
2019-05-02T16:52:53.769Z,86.47
2019-05-02T16:55:26.593Z,92.05
2019-05-02T16:57:56.770Z,87.92
2019-05-02T17:00:25.575Z,89.87
2019-05-02T17:02:54.804Z,82.53
2019-05-02T17:05:23.555Z,81.90
2019-05-02T17:08:18.826Z,72.40
2019-05-02T17:10:53.801Z,72.58
2019-05-02T17:13:21.592Z,77.22
2019-05-02T17:15:52.223Z,80.75
2019-05-02T17:18:22.821Z,86.30
2019-05-02T17:20:53.552Z,89.13
2019-05-02T17:23:22.339Z,94.80
2019-05-02T17:25:52.194Z,93.80
2019-05-02T17:28:22.279Z,97.00
2019-05-02T17:30:52.525Z,84.15
2019-05-02T17:33:21.768Z,87.53
2019-05-02T17:35:53.602Z,87.37
2019-05-02T17:38:25.061Z,88.60
2019-05-02T17:40:54.228Z,94.58
2019-05-02T17:43:22.673Z,88.35
2019-05-02T17:45:51.722Z,91.92
2019-05-02T17:48:20.471Z,88.72
2019-05-02T17:51:13.624Z,91.42
2019-05-02T17:53:49.598Z,95.28
2019-05-02T17:56:20.852Z,96.80
2019-05-02T17:58:53.395Z,93.47
2019-05-02T18:01:21.767Z,95.30
2019-05-02T18:03:52.069Z,98.22
2019-05-02T18:06:32.708Z,95.62
2019-05-02T18:08:55.241Z,105.13
2019-05-02T18:11:24.528Z,105.58
2019-05-02T18:13:53.207Z,99.62
2019-05-02T18:16:22.440Z,97.37
2019-05-02T18:18:52.138Z,95.20
2019-05-02T18:21:25.423Z,92.35
2019-05-02T18:23:52.344Z,90.67
2019-05-02T18:26:22.238Z,91.63
2019-05-02T18:28:52.626Z,96.45
2019-05-02T18:31:21.769Z,102.65
2019-05-02T18:33:52.126Z,98.45
2019-05-02T18:36:23.684Z,100.33
2019-05-02T18:38:52.495Z,95.32
2019-05-02T18:41:22.483Z,91.45
2019-05-02T18:43:52.141Z,88.30
2019-05-02T18:46:22.305Z,92.47
2019-05-02T18:48:51.902Z,96.22
2019-05-02T18:51:21.809Z,95.00
2019-05-02T18:53:52.868Z,101.82
2019-05-02T18:56:22.202Z,103.53
2019-05-02T18:58:53.351Z,103.00
2019-05-02T19:01:21.738Z,101.25
2019-05-02T19:03:52.506Z,112.90
2019-05-02T19:06:22.045Z,109.72
2019-05-02T19:08:52.826Z,121.05
2019-05-02T19:11:26.788Z,114.97
2019-05-02T19:13:54.864Z,117.30
2019-05-02T19:16:24.986Z,113.60
2019-05-02T19:18:57.236Z,117.37
2019-05-02T19:21:26.466Z,111.45
2019-05-02T19:23:55.165Z,104.30
2019-05-02T19:26:26.774Z,109.48
2019-05-02T19:29:08.299Z,99.97
2019-05-02T19:31:46.423Z,99.10
2019-05-02T19:34:16.804Z,101.10
2019-05-02T19:36:46.097Z,104.72
2019-05-02T19:39:14.875Z,101.40
2019-05-02T19:41:45.624Z,100.75
2019-05-02T19:44:15.374Z,105.58
2019-05-02T19:46:44.527Z,95.10
2019-05-02T19:49:16.171Z,102.38
2019-05-02T19:51:43.796Z,95.07
2019-05-02T19:54:12.614Z,99.77
2019-05-02T19:56:46.945Z,99.25
2019-05-02T19:59:16.824Z,94.17
2019-05-02T20:01:44.402Z,89.60
2019-05-02T20:04:16.207Z,87.80
2019-05-02T20:06:45.055Z,77.60
2019-05-02T20:09:13.760Z,77.58
2019-05-02T20:11:42.643Z,75.37
2019-05-02T20:14:12.541Z,87.08
2019-05-02T20:16:48.421Z,84.03
2019-05-02T20:19:22.093Z,67.75
2019-05-02T20:22:07.001Z,70.42
2019-05-02T20:24:57.683Z,68.67
2019-05-02T20:27:23.456Z,73.67
2019-05-02T20:29:52.314Z,66.42
2019-05-02T20:32:22.068Z,66.15
2019-05-02T20:34:51.087Z,64.77
2019-05-02T20:37:21.930Z,63.05
2019-05-02T20:39:50.262Z,61.30
2019-05-02T20:42:19.112Z,64.70
2019-05-02T20:44:47.799Z,60.30
2019-05-02T20:47:23.185Z,62.73
2019-05-02T20:49:51.998Z,62.30
2019-05-02T20:52:21.730Z,62.20
2019-05-02T20:54:52.399Z,63.87
2019-05-02T20:57:21.530Z,59.58
2019-05-02T20:59:52.444Z,60.83
2019-05-02T21:02:21.126Z,53.95
2019-05-02T21:04:52.027Z,61.85
2019-05-02T21:07:37.160Z,54.98
2019-05-02T21:10:27.172Z,62.55
2019-05-02T21:12:55.945Z,57.33
2019-05-02T21:15:24.871Z,58.10
2019-05-02T21:17:53.586Z,75.35
2019-05-02T21:20:22.755Z,61.45
2019-05-02T21:22:52.987Z,47.08
2019-05-02T21:25:23.212Z,51.68
2019-05-02T21:27:52.645Z,48.65
2019-05-02T21:30:26.999Z,47.88
2019-05-02T21:32:55.778Z,48.60
2019-05-02T21:35:24.841Z,46.37
2019-05-02T21:37:53.537Z,51.80
2019-05-02T21:40:23.287Z,46.88
2019-05-02T21:42:52.638Z,57.03
2019-05-02T21:45:22.257Z,40.15
2019-05-02T21:47:52.746Z,44.85
2019-05-02T21:50:32.414Z,20.40
2019-05-02T21:53:22.070Z,19.62
2019-05-02T21:56:13.132Z,20.55
2019-05-02T21:59:02.795Z,21.80
2019-05-02T22:01:34.745Z,15.65
2019-05-02T22:04:04.022Z,15.38
2019-05-02T22:06:32.817Z,15.65
2019-05-02T22:09:03.079Z,13.80
2019-05-02T22:11:32.152Z,16.25
2019-05-02T22:14:02.401Z,15.35
2019-05-02T22:16:32.706Z,13.43
2019-05-02T22:19:02.952Z,15.28
2019-05-02T22:21:32.437Z,16.10
2019-05-02T22:24:10.476Z,17.10
2019-05-02T22:26:32.891Z,14.93
2019-05-02T22:29:02.053Z,13.03
2019-05-02T22:31:32.385Z,16.93
2019-05-02T22:34:02.195Z,13.13
2019-05-02T22:36:32.741Z,13.93
2019-05-02T22:39:34.233Z,13.35
2019-05-02T22:42:04.705Z,13.55
2019-05-02T22:44:33.508Z,12.90
2019-05-02T22:47:02.191Z,11.40
2019-05-02T22:49:31.846Z,12.30
2019-05-02T22:52:00.800Z,15.38
2019-05-02T22:54:31.543Z,13.72
2019-05-02T22:56:59.954Z,14.70
2019-05-02T22:59:31.563Z,11.33
2019-05-02T23:02:01.975Z,9.50
2019-05-02T23:04:32.323Z,9.28
2019-05-02T23:07:03.319Z,7.97
2019-05-02T23:09:32.132Z,11.90
2019-05-02T23:12:02.825Z,12.23
2019-05-02T23:14:32.475Z,10.53
2019-05-02T23:17:02.274Z,11.80
2019-05-02T23:19:31.718Z,9.90
2019-05-02T23:22:02.114Z,11.38
2019-05-02T23:24:46.469Z,9.15
2019-05-02T23:27:37.424Z,12.33
2019-05-02T23:30:08.849Z,9.03
2019-05-02T23:32:38.027Z,10.70
2019-05-02T23:35:07.582Z,10.32
2019-05-02T23:37:36.477Z,8.08
2019-05-02T23:40:05.858Z,10.28
2019-05-02T23:42:34.522Z,8.58
2019-05-02T23:45:03.705Z,10.05
2019-05-02T23:47:33.011Z,11.28
2019-05-02T23:50:02.848Z,10.68
2019-05-02T23:52:31.693Z,12.50
2019-05-02T23:55:00.362Z,11.15
2019-05-02T23:57:29.032Z,11.53
2019-05-02T23:59:57.748Z,9.50
